Latest Coastal Weather Observations for Port Kembla Harbour

IDN60701

Issued at 12:51 pm EDT Friday 9 December 2016 (issued every 10 minutes, with the page automatically refreshed every 10 minutes)

About coastal observations | Map of coastal stations | Coastal observations for NSW | Marine services | Other Formats
Station Details ID: 068253 Name: PORT KEMBLA NTC AWS Lat: -34.47 Lon: 150.91 Height: 0.0 m
Data from the previous 72 hours. | See also: Recent months for locations in New South Wales
Date/Time
EDT
Temp
°C
Wind Pressure Rain since
9am
mm
Weather Cloud Vis
km
Sea
Height
m
Swell
Dir  Spd
kts
Gust
kts
hPa Trend Height
m
Period
s
Dir
09/12:31pm 22.9 WSW 15 28 1008.9 - - - - - - - - -
09/12:30pm 22.8 WSW 15 23 1008.8 - - - - - - - - -
09/12:02pm 22.7 W 19 31 1008.7 - - - - - - - - -
09/12:00pm 21.9 W 18 28 1008.6 - - - - - - - - -
09/11:30am 21.8 WSW 18 31 1008.5 - - - - - - - - -
09/11:11am 22.1 WSW 18 30 1008.3 - - - - - - - - -
09/11:00am 21.9 W 21 29 1008.1 - - - - - - - - -
09/10:41am 22.2 W 18 29 1007.9 - - - - - - - - -
09/10:30am 21.5 W 18 27 1007.7 - - - - - - - - -
09/10:00am 21.0 W 19 26 1007.5 - - - - - - - - -
09/09:30am 20.8 W 21 29 1007.4 - - - - - - - - -
09/09:00am 20.1 W 18 28 1007.0 - - - - - - - - -
09/08:52am 20.0 W 16 27 1007.1 - - - - - - - - -
09/08:30am 19.4 W 18 27 1006.8 - - - - - - - - -
09/08:00am 18.8 W 21 29 1006.2 - - - - - - - - -
09/07:47am 18.5 W 22 34 1006.1 - - - - - - - - -
09/07:30am 18.3 W 21 28 1005.8 - - - - - - - - -
09/07:08am 17.8 WNW 22 32 1005.4 - - - - - - - - -
09/07:00am 17.6 WNW 21 29 1005.6 - - - - - - - - -
09/06:30am 17.7 W 15 23 1005.5 - - - - - - - - -
09/06:00am 17.8 W 14 20 1005.4 - - - - - - - - -
09/05:30am 18.0 W 12 15 1005.1 - - - - - - - - -
09/05:00am 18.4 WSW 8 14 1004.6 - - - - - - - - -
09/04:30am 18.8 W 7 9 1003.9 - - - - - - - - -
09/04:00am 19.1 WSW 12 18 1003.5 - - - - - - - - -
09/03:30am 19.2 WSW 15 24 1003.2 - - - - - - - - -
09/03:00am 19.8 WSW 15 24 1002.7 - - - - - - - - -
09/02:35am 20.1 WSW 19 29 1001.9 - - - - - - - - -
09/02:30am 20.2 WSW 21 28 1001.7 - - - - - - - - -
09/02:04am 20.8 WSW 15 29 1001.3 - - - - - - - - -
09/02:00am 21.0 WSW 13 25 1001.2 - - - - - - - - -
09/01:30am 21.3 WSW 16 31 1000.6 - - - - - - - - -
09/01:00am 21.9 WSW 16 29 1000.5 - - - - - - - - -
09/12:31am 22.4 WNW 15 27 999.4 - - - - - - - - -
09/12:30am 22.5 WNW 14 26 999.4 - - - - - - - - -
09/12:00am 23.4 WNW 19 28 998.5 - - - - - - - - -
 
Date/Time
EDT
Temp
°C
Wind Pressure Rain since
9am
mm
Weather Cloud Vis
km
Sea
Height
m
Swell
Dir  Spd
kts
Gust
kts
hPa Trend Height
m
Period
s
Dir
08/11:30pm 24.7 W 17 34 997.6 - - - - - - - - -
08/11:00pm 25.7 W 18 28 997.3 - - - - - - - - -
08/10:32pm 26.4 W 15 25 997.4 - - - - - - - - -
08/10:30pm 26.4 W 16 24 997.4 - - - - - - - - -
08/10:00pm 26.6 WSW 13 18 998.0 - - - - - - - - -
08/09:48pm 27.0 W 15 21 998.1 - - - - - - - - -
08/09:30pm 26.8 SSW 5 11 998.0 - - - - - - - - -
08/09:00pm 23.0 E 4 5 998.2 - - - - - - - - -
08/08:30pm 25.0 SW 6 9 997.1 - - - - - - - - -
08/08:00pm 22.5 N 4 8 996.5 - - - - - - - - -
08/07:30pm 22.4 N 9 13 996.1 - - - - - - - - -
08/07:00pm 22.7 N 7 12 996.2 - - - - - - - - -
08/06:30pm 22.6 NNE 14 20 996.5 - - - - - - - - -
08/06:00pm 22.6 NE 19 26 995.9 - - - - - - - - -
08/05:30pm 22.5 NE 17 24 996.2 - - - - - - - - -
08/05:00pm 22.6 NE 18 25 996.5 - - - - - - - - -
08/04:30pm 22.5 NE 17 22 996.7 - - - - - - - - -
08/04:00pm 22.4 NE 13 19 997.4 - - - - - - - - -
08/03:30pm 22.3 NE 15 21 997.9 - - - - - - - - -
08/03:00pm 22.2 NE 16 23 999.0 - - - - - - - - -
08/02:30pm 21.9 NE 14 22 1000.0 - - - - - - - - -
08/02:00pm 21.7 NE 15 23 1000.3 - - - - - - - - -
08/01:30pm 21.7 NE 16 22 1001.3 - - - - - - - - -
08/01:00pm 21.6 NE 16 22 1002.1 - - - - - - - - -
08/12:30pm 21.4 NE 14 18 1002.9 - - - - - - - - -
08/12:00pm 21.4 NE 15 21 1003.5 - - - - - - - - -
08/11:30am 21.4 NE 14 17 1004.2 - - - - - - - - -
08/11:00am 21.4 NE 13 18 1005.0 - - - - - - - - -
08/10:30am 21.3 NE 12 15 1005.6 - - - - - - - - -
08/10:00am 21.2 NE 12 16 1006.0 - - - - - - - - -
08/09:30am 21.3 NE 14 17 1006.7 - - - - - - - - -
08/09:00am 20.9 NE 13 17 1007.3 - - - - - - - - -
08/08:30am 20.8 NE 10 14 1008.0 - - - - - - - - -
08/08:00am 20.6 NNE 10 13 1008.5 - - - - - - - - -
08/07:30am 20.6 NNE 9 12 1008.8 - - - - - - - - -
08/07:00am 20.5 NNE 9 11 1008.9 - - - - - - - - -
08/06:30am 20.5 NNE 11 15 1008.8 - - - - - - - - -
08/06:00am 20.5 NNE 11 15 1009.0 - - - - - - - - -
08/05:30am 20.7 NNE 8 11 1009.2 - - - - - - - - -
08/05:00am 20.7 NNE 11 14 1009.4 - - - - - - - - -
08/04:30am 21.0 N 9 13 1009.5 - - - - - - - - -
08/04:00am 21.0 N 9 12 1009.8 - - - - - - - - -
08/03:30am 21.0 NNE 11 15 1010.2 - - - - - - - - -
08/03:00am 21.0 NNE 11 14 1010.6 - - - - - - - - -
08/02:30am 21.1 NNE 11 16 1011.0 - - - - - - - - -
08/02:00am 21.2 NNE 11 14 1011.4 - - - - - - - - -
08/01:30am 21.1 NNE 10 13 1011.9 - - - - - - - - -
08/01:00am 21.1 NNE 11 14 1012.2 - - - - - - - - -
08/12:30am 21.1 NNE 11 14 1012.5 - - - - - - - - -
08/12:00am 21.0 NNE 12 15 1012.8 - - - - - - - - -
 
Date/Time
EDT
Temp
°C
Wind Pressure Rain since
9am
mm
Weather Cloud Vis
km
Sea
Height
m
Swell
Dir  Spd
kts
Gust
kts
hPa Trend Height
m
Period
s
Dir
07/11:30pm 21.0 NNE 13 19 1013.1 - - - - - - - - -
07/11:00pm 21.3 NNE 14 18 1013.3 - - - - - - - - -
07/10:30pm 21.1 NNE 12 16 1013.5 - - - - - - - - -
07/10:00pm 21.2 NNE 12 17 1013.5 - - - - - - - - -
07/09:30pm 21.2 NNE 11 16 1013.6 - - - - - - - - -
07/09:00pm 21.3 NE 12 16 1013.7 - - - - - - - - -
07/08:30pm 21.1 NE 11 13 1013.6 - - - - - - - - -
07/08:00pm 21.3 NE 10 14 1013.7 - - - - - - - - -
07/07:30pm 21.1 NE 10 14 1013.6 - - - - - - - - -
07/07:00pm 21.1 NE 10 15 1013.5 - - - - - - - - -
07/06:30pm 21.2 NE 10 14 1013.2 - - - - - - - - -
07/06:00pm 21.2 NE 9 13 1013.2 - - - - - - - - -
07/05:30pm 21.2 NE 10 13 1013.1 - - - - - - - - -
07/05:00pm 21.2 NE 9 11 1013.3 - - - - - - - - -
07/04:30pm 21.2 NE 8 11 1013.4 - - - - - - - - -
07/04:00pm 21.2 NE 7 11 1013.7 - - - - - - - - -
07/03:30pm 20.9 ENE 8 11 1013.8 - - - - - - - - -
07/03:00pm 20.9 ENE 9 11 1013.9 - - - - - - - - -
07/02:30pm 20.8 ENE 7 10 1014.4 - - - - - - - - -
07/02:00pm 21.0 E 5 7 1014.7 - - - - - - - - -
07/01:30pm 20.9 ESE 6 8 1014.8 - - - - - - - - -
07/01:00pm 20.7 ESE 6 9 1015.2 - - - - - - - - -
07/12:30pm 20.7 ESE 5 8 1015.5 - - - - - - - - -
07/12:00pm 20.3 ESE 7 9 1015.8 - - - - - - - - -
07/11:30am 20.0 SE 5 7 1015.9 - - - - - - - - -
07/11:00am 19.9 SE 5 7 1015.9 - - - - - - - - -
07/10:30am 19.4 SSE 4 8 1015.7 - - - - - - - - -
07/10:00am 19.4 SE 5 9 1015.5 - - - - - - - - -
07/09:30am 19.6 SSE 6 10 1015.3 - - - - - - - - -
07/09:00am 19.7 SSW 4 9 1015.3 - - - - - - - - -
07/08:30am 19.5 SSW 4 8 1014.9 - - - - - - - - -
07/08:00am 20.4 SSE 5 9 1014.9 - - - - - - - - -
07/07:30am 20.5 SE 7 9 1014.5 - - - - - - - - -
07/07:00am 20.0 SE 8 11 1014.4 - - - - - - - - -
07/06:30am 19.9 SE 7 10 1014.2 - - - - - - - - -
07/06:00am 19.8 SE 8 11 1013.7 - - - - - - - - -
07/05:30am 19.8 SE 9 13 1013.3 - - - - - - - - -
07/05:00am 19.9 SE 10 14 1012.7 - - - - - - - - -
07/04:30am 19.7 SE 10 14 1012.5 - - - - - - - - -
07/04:00am 19.5 SSW 3 5 1012.4 - - - - - - - - -
07/03:30am 19.6 S 3 7 1012.4 - - - - - - - - -
07/03:00am 19.6 SSW 4 7 1012.6 - - - - - - - - -
07/02:30am 19.6 SW 5 7 1013.0 - - - - - - - - -
07/02:00am 19.6 SSW 3 6 1013.0 - - - - - - - - -
07/01:30am 19.7 SW 6 9 1013.4 - - - - - - - - -
07/01:00am 19.8 SW 7 12 1013.0 - - - - - - - - -
07/12:30am 20.1 SW 9 15 1012.8 - - - - - - - - -
07/12:00am 20.3 SW 8 12 1012.5 - - - - - - - - -

Other Formats:

Comma delimited format used in spreadsheet applications
http://www.bom.gov.au/fwo/IDN60701/IDN60701.95745.axf

JavaScript Object Notation format (JSON) in row-major order
http://www.bom.gov.au/fwo/IDN60701/IDN60701.95745.json